createdAt,value
2022-10-17T00:04:43.539Z,1025.38
2022-10-17T00:19:59.550Z,1025.54
2022-10-17T00:35:16.505Z,1025.68
2022-10-17T00:50:32.499Z,1025.82
2022-10-17T01:05:49.471Z,1025.77
2022-10-17T01:21:06.441Z,1025.77
2022-10-17T01:36:23.409Z,1025.91
2022-10-17T01:51:39.396Z,1026
2022-10-17T02:06:55.353Z,1025.94
2022-10-17T02:22:11.331Z,1025.86
2022-10-17T02:37:28.510Z,1025.87
2022-10-17T02:52:45.272Z,1025.87
2022-10-17T03:08:02.256Z,1025.98
2022-10-17T03:23:19.236Z,1026.09
2022-10-17T03:38:36.196Z,1026.18
2022-10-17T03:53:52.141Z,1026.24
2022-10-17T04:09:08.153Z,1026.33
2022-10-17T04:24:25.094Z,1026.46
2022-10-17T04:39:41.092Z,1026.6
2022-10-17T04:54:58.034Z,1026.71
2022-10-17T05:10:15.058Z,1026.87
2022-10-17T05:25:31.989Z,1026.95
2022-10-17T05:40:47.997Z,1027.06
2022-10-17T05:56:03.929Z,1027.12
2022-10-17T06:11:19.955Z,1027.44
2022-10-17T06:26:36.867Z,1027.79
2022-10-17T06:41:53.881Z,1027.93
2022-10-17T06:57:10.824Z,1028.13
2022-10-17T07:12:27.838Z,1028.26
2022-10-17T07:27:44.763Z,1028.41
2022-10-17T07:43:00.770Z,1028.56
2022-10-17T07:58:16.711Z,1028.7
2022-10-17T08:13:32.719Z,1028.76
2022-10-17T08:28:49.779Z,1028.58
2022-10-17T08:44:06.628Z,1028.67
2022-10-17T08:59:23.636Z,1028.53
2022-10-17T09:14:39.568Z,1028.44
2022-10-17T09:29:56.553Z,1028.3
2022-10-17T09:45:12.512Z,1028.27
2022-10-17T10:00:28.564Z,1028.21
2022-10-17T10:15:44.444Z,1028.07
2022-10-17T10:31:02.408Z,1028.07
2022-10-17T10:46:19.380Z,1027.92
2022-10-17T11:01:36.324Z,1027.88
2022-10-17T11:02:21.244Z,1027.88
2022-10-17T11:16:53.322Z,1027.77
2022-10-17T11:32:10.257Z,1027.6
2022-10-17T11:47:27.218Z,1027.34
2022-10-17T12:02:44.186Z,1027.32
2022-10-17T12:18:00.160Z,1027.15
2022-10-17T12:33:17.118Z,1026.92
2022-10-17T12:48:33.113Z,1026.6
2022-10-17T13:03:49.051Z,1026.63
2022-10-17T13:19:05.057Z,1026.55
2022-10-17T13:34:23.978Z,1026.35
2022-10-17T13:49:39.988Z,1026.11
2022-10-17T14:05:16.325Z,1026.24
2022-10-17T14:20:40.703Z,1026.26
2022-10-17T14:35:41.434Z,1026.35
2022-10-17T14:50:47.882Z,1026.38
2022-10-17T15:06:03.813Z,1026.66
2022-10-17T15:21:33.626Z,1026.72
2022-10-17T15:36:36.740Z,1027.09
2022-10-17T15:51:55.157Z,1027.18
2022-10-17T16:07:09.771Z,1027.3
2022-10-17T16:22:26.827Z,1027.6
2022-10-17T16:37:43.621Z,1027.82
2022-10-17T16:52:59.613Z,1027.92
2022-10-17T17:08:15.610Z,1028.09
2022-10-17T17:23:31.521Z,1028.28
2022-10-17T17:38:48.534Z,1028.33
2022-10-17T17:54:04.469Z,1028.67
2022-10-17T18:09:21.465Z,1028.81
2022-10-17T18:24:38.396Z,1029.08
2022-10-17T18:39:57.417Z,1029
2022-10-17T18:55:13.341Z,1029.06
2022-10-17T19:10:29.339Z,1029.01
2022-10-17T19:25:45.269Z,1029.04
2022-10-17T19:41:02.295Z,1029.04
2022-10-17T19:56:19.221Z,1029.23
2022-10-17T20:11:36.208Z,1029.23
2022-10-17T20:26:52.156Z,1029.37
2022-10-17T20:42:09.165Z,1029.64
2022-10-17T20:57:25.100Z,1029.71
2022-10-17T21:12:53.201Z,1029.74
2022-10-17T21:27:57.053Z,1029.79
2022-10-17T21:43:15.043Z,1029.88
2022-10-17T21:58:31.011Z,1029.9
2022-10-17T22:13:46.958Z,1029.9
2022-10-17T22:29:03.066Z,1030.04
2022-10-17T22:44:22.885Z,1030.02
2022-10-17T22:59:38.900Z,1030.1
2022-10-17T23:14:54.834Z,1030.1
2022-10-17T23:30:11.819Z,1030.16
2022-10-17T23:45:33.415Z,1029.97
